OAS123 SKCL-KEWR
Flight info
| Callsign | OAS123 |
|---|---|
| Flight time | 5h 23m |
| Altitude | 34000 |
| Route | KIKUM5A KIKUM UQ101 ANRON/N0446F360 UQ101 KILER UM779 TAKOD UL347 MLY UT172 BEMOL UL417 NEFTU UR625 ENAMO/N0445F370 Y307 NUCAR AR3 CASPR Y307 CARPX AR3 GARIC Q107 ZORDO Q111 GEARS/N0441F380 DCT QUART PHLBO4 |
| Aircraft | A20N/M-SDE2E3FGHIRWXY/LB1 |
Departure
| Time | 2026-04-23 17:08 |
|---|---|
| Airport | Alfonso Bonilla Aragon International Airport (SKCL) |
Arrival
| Time | 2026-04-23 22:32 |
|---|---|
| Airport | Newark Liberty International Airport (KEWR) |
| Time | Latitude | Longitude | Altitude | Speed | Heading |
|---|---|---|---|---|---|
| 2026-04-23 16:19 | 3.53515 | -76.38624 | 3164 ft | 0 kts | 287° |
| 2026-04-23 16:58 | 3.53511 | -76.38608 | 3165 ft | 3 kts | 287° |
| 2026-04-23 16:58 | 3.53505 | -76.38590 | 3166 ft | 3 kts | 287° |
| 2026-04-23 16:59 | 3.53506 | -76.38572 | 3165 ft | 3 kts | 217° |
| 2026-04-23 16:59 | 3.53511 | -76.38569 | 3169 ft | 0 kts | 192° |
| 2026-04-23 17:03 | 3.53508 | -76.38569 | 3164 ft | 3 kts | 181° |
| 2026-04-23 17:03 | 3.53432 | -76.38565 | 3164 ft | 15 kts | 182° |
| 2026-04-23 17:03 | 3.53353 | -76.38525 | 3163 ft | 12 kts | 144° |
| 2026-04-23 17:04 | 3.53292 | -76.38514 | 3163 ft | 7 kts | 186° |
| 2026-04-23 17:04 | 3.53245 | -76.38521 | 3163 ft | 6 kts | 189° |
| 2026-04-23 17:04 | 3.53216 | -76.38526 | 3163 ft | 6 kts | 189° |
| 2026-04-23 17:04 | 3.53177 | -76.38532 | 3163 ft | 6 kts | 190° |
| 2026-04-23 17:05 | 3.53095 | -76.38548 | 3163 ft | 17 kts | 190° |
| 2026-04-23 17:05 | 3.52968 | -76.38524 | 3162 ft | 10 kts | 117° |
| 2026-04-23 17:05 | 3.52965 | -76.38517 | 3162 ft | 0 kts | 114° |
| 2026-04-23 17:06 | 3.52963 | -76.38500 | 3177 ft | 10 kts | 93° |
| 2026-04-23 17:07 | 3.53024 | -76.38398 | 3160 ft | 17 kts | 25° |
| 2026-04-23 17:07 | 3.53037 | -76.38394 | 3160 ft | 0 kts | 11° |
| 2026-04-23 17:07 | 3.53149 | -76.38373 | 3160 ft | 45 kts | 10° |
| 2026-04-23 17:08 | 3.53449 | -76.38321 | 3164 ft | 85 kts | 9° |
| 2026-04-23 17:08 | 3.54234 | -76.38186 | 3169 ft | 145 kts | 10° |
| 2026-04-23 17:08 | 3.55354 | -76.38004 | 3370 ft | 172 kts | 8° |
| 2026-04-23 17:08 | 3.56531 | -76.37805 | 4008 ft | 173 kts | 10° |
| 2026-04-23 17:09 | 3.57736 | -76.37581 | 4552 ft | 177 kts | 7° |
| 2026-04-23 17:09 | 3.58969 | -76.37415 | 5013 ft | 183 kts | 7° |
| 2026-04-23 17:09 | 3.60269 | -76.37200 | 5317 ft | 196 kts | 9° |
| 2026-04-23 17:09 | 3.61661 | -76.36939 | 5513 ft | 211 kts | 10° |
| 2026-04-23 17:10 | 3.63159 | -76.36666 | 5732 ft | 226 kts | 9° |
| 2026-04-23 17:10 | 3.64738 | -76.36381 | 6015 ft | 235 kts | 9° |
| 2026-04-23 17:10 | 3.66391 | -76.36088 | 6161 ft | 255 kts | 9° |
| 2026-04-23 17:10 | 3.68205 | -76.35764 | 6471 ft | 272 kts | 10° |
| 2026-04-23 17:11 | 3.70085 | -76.35353 | 6934 ft | 280 kts | 14° |
| 2026-04-23 17:11 | 3.71972 | -76.34825 | 7476 ft | 284 kts | 16° |
| 2026-04-23 17:11 | 3.73876 | -76.34253 | 8055 ft | 287 kts | 16° |
| 2026-04-23 17:11 | 3.75797 | -76.33670 | 8627 ft | 290 kts | 16° |
| 2026-04-23 17:12 | 3.77737 | -76.33080 | 9258 ft | 292 kts | 17° |
| 2026-04-23 17:12 | 3.79683 | -76.32456 | 9854 ft | 295 kts | 18° |
| 2026-04-23 17:12 | 3.81658 | -76.31788 | 10237 ft | 306 kts | 19° |
| 2026-04-23 17:12 | 3.83698 | -76.31089 | 10461 ft | 321 kts | 19° |
| 2026-04-23 17:13 | 3.85862 | -76.30347 | 10672 ft | 336 kts | 19° |
| 2026-04-23 17:13 | 3.88116 | -76.29573 | 10924 ft | 349 kts | 19° |
| 2026-04-23 17:13 | 3.90441 | -76.28776 | 11305 ft | 356 kts | 19° |
| 2026-04-23 17:13 | 3.92800 | -76.27967 | 11756 ft | 360 kts | 19° |
| 2026-04-23 17:14 | 3.95180 | -76.27151 | 12254 ft | 363 kts | 18° |
| 2026-04-23 17:14 | 3.97582 | -76.26328 | 12739 ft | 367 kts | 18° |
| 2026-04-23 17:14 | 4.00005 | -76.25498 | 13251 ft | 369 kts | 18° |
| 2026-04-23 17:14 | 4.02415 | -76.24671 | 13745 ft | 372 kts | 18° |
| 2026-04-23 17:15 | 4.04878 | -76.23826 | 14213 ft | 376 kts | 18° |
| 2026-04-23 17:15 | 4.07366 | -76.22988 | 14643 ft | 379 kts | 16° |
| 2026-04-23 17:15 | 4.09958 | -76.22485 | 15053 ft | 382 kts | 2° |
| 2026-04-23 17:15 | 4.12626 | -76.22495 | 15506 ft | 385 kts | 356° |
| 2026-04-23 17:16 | 4.15309 | -76.22641 | 15948 ft | 387 kts | 356° |
| 2026-04-23 17:16 | 4.18009 | -76.22806 | 16395 ft | 390 kts | 356° |
| 2026-04-23 17:16 | 4.20730 | -76.22971 | 16833 ft | 393 kts | 356° |
| 2026-04-23 17:16 | 4.23476 | -76.23134 | 17258 ft | 396 kts | 356° |
| 2026-04-23 17:17 | 4.26204 | -76.23292 | 17665 ft | 399 kts | 356° |
| 2026-04-23 17:17 | 4.28987 | -76.23452 | 18078 ft | 402 kts | 356° |
| 2026-04-23 17:17 | 4.31791 | -76.23613 | 18439 ft | 405 kts | 356° |
| 2026-04-23 17:17 | 4.34611 | -76.23774 | 18783 ft | 407 kts | 356° |
| 2026-04-23 17:18 | 4.40289 | -76.24097 | 19504 ft | 410 kts | 356° |
| 2026-04-23 17:18 | 4.43147 | -76.24259 | 19855 ft | 412 kts | 356° |
| 2026-04-23 17:18 | 4.46014 | -76.24422 | 20164 ft | 414 kts | 356° |
| 2026-04-23 17:19 | 4.48901 | -76.24587 | 20477 ft | 417 kts | 356° |
| 2026-04-23 17:19 | 4.51762 | -76.24751 | 20817 ft | 418 kts | 355° |
| 2026-04-23 17:19 | 4.54674 | -76.24924 | 21186 ft | 420 kts | 355° |
| 2026-04-23 17:19 | 4.57594 | -76.25102 | 21552 ft | 421 kts | 355° |
| 2026-04-23 17:20 | 4.60525 | -76.25281 | 21911 ft | 423 kts | 355° |
| 2026-04-23 17:20 | 4.66416 | -76.25643 | 22640 ft | 426 kts | 355° |
| 2026-04-23 17:21 | 4.72367 | -76.26008 | 23374 ft | 430 kts | 355° |
| 2026-04-23 17:21 | 4.75362 | -76.26190 | 23707 ft | 432 kts | 355° |
| 2026-04-23 17:21 | 4.81350 | -76.26556 | 24287 ft | 436 kts | 355° |
| 2026-04-23 17:22 | 4.84380 | -76.26740 | 24609 ft | 437 kts | 355° |
| 2026-04-23 17:22 | 4.90482 | -76.27110 | 25225 ft | 441 kts | 355° |
| 2026-04-23 17:23 | 4.96625 | -76.27484 | 25825 ft | 444 kts | 356° |
| 2026-04-23 17:23 | 4.99715 | -76.27672 | 26122 ft | 446 kts | 356° |
| 2026-04-23 17:23 | 5.05885 | -76.28050 | 26689 ft | 449 kts | 356° |
| 2026-04-23 17:24 | 5.09010 | -76.28240 | 26962 ft | 450 kts | 356° |
| 2026-04-23 17:24 | 5.12140 | -76.28431 | 27256 ft | 452 kts | 356° |
| 2026-04-23 17:24 | 5.18438 | -76.28815 | 27792 ft | 455 kts | 357° |
| 2026-04-23 17:25 | 5.24830 | -76.29195 | 28092 ft | 464 kts | 357° |
| 2026-04-23 17:25 | 5.28056 | -76.29384 | 28329 ft | 466 kts | 357° |
| 2026-04-23 17:26 | 5.34495 | -76.29760 | 28813 ft | 469 kts | 357° |
| 2026-04-23 17:26 | 5.41024 | -76.30143 | 29334 ft | 471 kts | 358° |
| 2026-04-23 17:27 | 5.47545 | -76.30527 | 30057 ft | 468 kts | 358° |
| 2026-04-23 17:27 | 5.50795 | -76.30718 | 30316 ft | 468 kts | 357° |
| 2026-04-23 17:27 | 5.54040 | -76.30909 | 30580 ft | 467 kts | 358° |
| 2026-04-23 17:27 | 5.57244 | -76.31097 | 30836 ft | 466 kts | 357° |
| 2026-04-23 17:28 | 5.60472 | -76.31287 | 31160 ft | 464 kts | 357° |
| 2026-04-23 17:28 | 5.63699 | -76.31477 | 31372 ft | 465 kts | 357° |
| 2026-04-23 17:28 | 5.66931 | -76.31667 | 31587 ft | 465 kts | 357° |
| 2026-04-23 17:28 | 5.70160 | -76.31857 | 31824 ft | 465 kts | 358° |
| 2026-04-23 17:29 | 5.73391 | -76.32047 | 32037 ft | 465 kts | 357° |
| 2026-04-23 17:29 | 5.76623 | -76.32237 | 32292 ft | 464 kts | 358° |
| 2026-04-23 17:29 | 5.83074 | -76.32617 | 32770 ft | 463 kts | 358° |
| 2026-04-23 17:30 | 5.86248 | -76.32804 | 32988 ft | 463 kts | 358° |
| 2026-04-23 17:30 | 5.92673 | -76.33182 | 33411 ft | 463 kts | 358° |
| 2026-04-23 17:30 | 5.95900 | -76.33371 | 33517 ft | 465 kts | 358° |
| 2026-04-23 17:31 | 5.99131 | -76.33561 | 33734 ft | 465 kts | 358° |
| 2026-04-23 17:31 | 6.02354 | -76.33751 | 33918 ft | 465 kts | 358° |
| 2026-04-23 17:31 | 6.05581 | -76.33942 | 34092 ft | 464 kts | 358° |
| 2026-04-23 17:31 | 6.08806 | -76.34133 | 34251 ft | 464 kts | 358° |
| 2026-04-23 17:32 | 6.12032 | -76.34323 | 34407 ft | 464 kts | 358° |
| 2026-04-23 17:32 | 6.15248 | -76.34512 | 34573 ft | 464 kts | 358° |
| 2026-04-23 17:32 | 6.18427 | -76.34699 | 34737 ft | 463 kts | 358° |
| 2026-04-23 17:32 | 6.21644 | -76.34889 | 34878 ft | 463 kts | 358° |
| 2026-04-23 17:33 | 6.24865 | -76.35078 | 35014 ft | 464 kts | 358° |
| 2026-04-23 17:33 | 6.28083 | -76.35268 | 35159 ft | 463 kts | 358° |
| 2026-04-23 17:33 | 6.31307 | -76.35458 | 35273 ft | 464 kts | 358° |
| 2026-04-23 17:33 | 6.34534 | -76.35648 | 35386 ft | 465 kts | 358° |
| 2026-04-23 17:34 | 6.37759 | -76.35838 | 35527 ft | 464 kts | 358° |
| 2026-04-23 17:34 | 6.40980 | -76.36028 | 35647 ft | 464 kts | 358° |
| 2026-04-23 17:34 | 6.47373 | -76.36405 | 35891 ft | 463 kts | 358° |
| 2026-04-23 17:35 | 6.50593 | -76.36595 | 35983 ft | 464 kts | 358° |
| 2026-04-23 17:35 | 6.60274 | -76.37166 | 36006 ft | 465 kts | 358° |
| 2026-04-23 17:36 | 6.66730 | -76.37548 | 35997 ft | 465 kts | 358° |
| 2026-04-23 17:36 | 6.73147 | -76.37927 | 36001 ft | 465 kts | 358° |
| 2026-04-23 17:37 | 6.79605 | -76.38308 | 35998 ft | 465 kts | 358° |
| 2026-04-23 17:38 | 6.89294 | -76.38880 | 35999 ft | 465 kts | 358° |
| 2026-04-23 17:38 | 6.95754 | -76.39262 | 35994 ft | 465 kts | 358° |
| 2026-04-23 17:39 | 7.02166 | -76.39641 | 35992 ft | 465 kts | 358° |
| 2026-04-23 17:39 | 7.08629 | -76.40023 | 35987 ft | 465 kts | 358° |
| 2026-04-23 17:40 | 7.15086 | -76.40404 | 35988 ft | 465 kts | 358° |
| 2026-04-23 17:40 | 7.21544 | -76.40786 | 35990 ft | 465 kts | 358° |
| 2026-04-23 17:41 | 7.27999 | -76.41168 | 35986 ft | 465 kts | 358° |
| 2026-04-23 17:41 | 7.37641 | -76.41740 | 35991 ft | 465 kts | 358° |
| 2026-04-23 17:42 | 7.47334 | -76.42313 | 35980 ft | 466 kts | 358° |
| 2026-04-23 17:43 | 7.53804 | -76.42697 | 35962 ft | 466 kts | 357° |
| 2026-04-23 17:43 | 7.60232 | -76.43078 | 35963 ft | 466 kts | 357° |
| 2026-04-23 17:44 | 7.66702 | -76.43462 | 35962 ft | 466 kts | 357° |
| 2026-04-23 17:44 | 7.76406 | -76.44037 | 35949 ft | 466 kts | 357° |
| 2026-04-23 17:45 | 7.86085 | -76.44612 | 35942 ft | 467 kts | 357° |
| 2026-04-23 17:46 | 7.95813 | -76.45189 | 35948 ft | 467 kts | 357° |
| 2026-04-23 17:46 | 8.02302 | -76.45574 | 35942 ft | 467 kts | 357° |
| 2026-04-23 17:47 | 8.08787 | -76.45960 | 35943 ft | 467 kts | 357° |
| 2026-04-23 17:48 | 8.18485 | -76.46536 | 35939 ft | 469 kts | 358° |
| 2026-04-23 17:48 | 8.25000 | -76.46924 | 35936 ft | 469 kts | 358° |
| 2026-04-23 17:49 | 8.31521 | -76.47313 | 35935 ft | 469 kts | 358° |
| 2026-04-23 17:49 | 8.38036 | -76.47701 | 35936 ft | 469 kts | 358° |
| 2026-04-23 17:50 | 8.44510 | -76.48088 | 35929 ft | 469 kts | 358° |
| 2026-04-23 17:50 | 8.54288 | -76.48671 | 35928 ft | 470 kts | 357° |
| 2026-04-23 17:51 | 8.60816 | -76.49062 | 35927 ft | 470 kts | 357° |
| 2026-04-23 17:52 | 8.70569 | -76.49644 | 35931 ft | 470 kts | 357° |
| 2026-04-23 17:52 | 8.80367 | -76.50230 | 35926 ft | 470 kts | 358° |
| 2026-04-23 17:53 | 8.90168 | -76.50818 | 35930 ft | 470 kts | 358° |
| 2026-04-23 17:54 | 8.96656 | -76.51205 | 35933 ft | 470 kts | 358° |
| 2026-04-23 17:54 | 9.06441 | -76.51791 | 35929 ft | 470 kts | 358° |
| 2026-04-23 17:55 | 9.16234 | -76.52377 | 35928 ft | 470 kts | 358° |
| 2026-04-23 17:56 | 9.22758 | -76.52768 | 35934 ft | 470 kts | 357° |
| 2026-04-23 17:56 | 9.32481 | -76.53351 | 35930 ft | 468 kts | 357° |
| 2026-04-23 17:57 | 9.38982 | -76.53741 | 35926 ft | 468 kts | 357° |
| 2026-04-23 17:58 | 9.48739 | -76.54327 | 35930 ft | 468 kts | 357° |
| 2026-04-23 17:58 | 9.55193 | -76.54714 | 35931 ft | 468 kts | 357° |
| 2026-04-23 17:59 | 9.61703 | -76.55106 | 35930 ft | 470 kts | 357° |
| 2026-04-23 17:59 | 9.68247 | -76.55498 | 35929 ft | 472 kts | 357° |
| 2026-04-23 18:00 | 9.74802 | -76.55890 | 35928 ft | 472 kts | 357° |
| 2026-04-23 18:00 | 9.81311 | -76.56280 | 35930 ft | 472 kts | 357° |
| 2026-04-23 18:01 | 9.87868 | -76.56673 | 35930 ft | 472 kts | 357° |
| 2026-04-23 18:01 | 9.94422 | -76.57066 | 35935 ft | 472 kts | 356° |
| 2026-04-23 18:02 | 10.00964 | -76.57459 | 35926 ft | 470 kts | 356° |
| 2026-04-23 18:02 | 10.07446 | -76.57848 | 35927 ft | 470 kts | 356° |
| 2026-04-23 18:03 | 10.13968 | -76.58240 | 35924 ft | 470 kts | 356° |
| 2026-04-23 18:03 | 10.20497 | -76.58633 | 35925 ft | 470 kts | 356° |
| 2026-04-23 18:04 | 10.27021 | -76.59025 | 35929 ft | 470 kts | 356° |
| 2026-04-23 18:04 | 10.33506 | -76.59415 | 35929 ft | 470 kts | 356° |
| 2026-04-23 18:05 | 10.40036 | -76.59808 | 35926 ft | 470 kts | 356° |
| 2026-04-23 18:05 | 10.46571 | -76.60201 | 35928 ft | 470 kts | 356° |
| 2026-04-23 18:06 | 10.53104 | -76.60595 | 35929 ft | 470 kts | 356° |
| 2026-04-23 18:06 | 10.59640 | -76.60988 | 35928 ft | 470 kts | 356° |
| 2026-04-23 18:07 | 10.66131 | -76.61379 | 35924 ft | 470 kts | 356° |
| 2026-04-23 18:07 | 10.72663 | -76.61773 | 35924 ft | 470 kts | 356° |
| 2026-04-23 18:08 | 10.78093 | -76.62101 | 35927 ft | 470 kts | 356° |
| 2026-04-23 18:08 | 10.85690 | -76.62559 | 35929 ft | 470 kts | 356° |
| 2026-04-23 18:09 | 10.92224 | -76.62954 | 35925 ft | 470 kts | 356° |
| 2026-04-23 18:09 | 10.98759 | -76.63348 | 35923 ft | 470 kts | 356° |
| 2026-04-23 18:10 | 11.05295 | -76.63743 | 35930 ft | 471 kts | 356° |
| 2026-04-23 18:10 | 11.11789 | -76.64136 | 35930 ft | 471 kts | 356° |
| 2026-04-23 18:11 | 11.18327 | -76.64531 | 35927 ft | 471 kts | 356° |
| 2026-04-23 18:11 | 11.24871 | -76.64927 | 35927 ft | 471 kts | 356° |
| 2026-04-23 18:12 | 11.31406 | -76.65323 | 35931 ft | 471 kts | 356° |
| 2026-04-23 18:12 | 11.37899 | -76.65716 | 35931 ft | 471 kts | 355° |
| 2026-04-23 18:13 | 11.44429 | -76.66111 | 35929 ft | 469 kts | 355° |
| 2026-04-23 18:13 | 11.50940 | -76.66506 | 35931 ft | 469 kts | 355° |
| 2026-04-23 18:14 | 11.57449 | -76.66901 | 35929 ft | 469 kts | 355° |
| 2026-04-23 18:14 | 11.63917 | -76.67294 | 35931 ft | 469 kts | 355° |
| 2026-04-23 18:15 | 11.70423 | -76.67688 | 35929 ft | 469 kts | 355° |
| 2026-04-23 18:15 | 11.76934 | -76.68084 | 35938 ft | 468 kts | 355° |
| 2026-04-23 18:16 | 11.83435 | -76.68479 | 35931 ft | 468 kts | 355° |
| 2026-04-23 18:16 | 11.89893 | -76.68871 | 35932 ft | 468 kts | 355° |
| 2026-04-23 18:17 | 11.99644 | -76.69465 | 35931 ft | 468 kts | 355° |
| 2026-04-23 18:17 | 12.06141 | -76.69860 | 35928 ft | 468 kts | 355° |
| 2026-04-23 18:18 | 12.12643 | -76.70256 | 35933 ft | 468 kts | 354° |
| 2026-04-23 18:18 | 12.19098 | -76.70649 | 35933 ft | 468 kts | 354° |
| 2026-04-23 18:19 | 12.25598 | -76.71045 | 35940 ft | 468 kts | 354° |
| 2026-04-23 18:19 | 12.32101 | -76.71442 | 35931 ft | 468 kts | 354° |
| 2026-04-23 18:20 | 12.38601 | -76.71839 | 35928 ft | 468 kts | 354° |
| 2026-04-23 18:20 | 12.45053 | -76.72232 | 35935 ft | 468 kts | 354° |
| 2026-04-23 18:21 | 12.51555 | -76.72630 | 35932 ft | 468 kts | 354° |
| 2026-04-23 18:21 | 12.58062 | -76.73028 | 35932 ft | 468 kts | 354° |
| 2026-04-23 18:22 | 12.64526 | -76.73423 | 35940 ft | 468 kts | 354° |
| 2026-04-23 18:22 | 12.71032 | -76.73821 | 35932 ft | 468 kts | 354° |
| 2026-04-23 18:23 | 12.80794 | -76.74421 | 35936 ft | 469 kts | 353° |
| 2026-04-23 18:24 | 12.90558 | -76.75022 | 35942 ft | 469 kts | 353° |
| 2026-04-23 18:25 | 13.00274 | -76.75620 | 35936 ft | 469 kts | 353° |
| 2026-04-23 18:25 | 13.06780 | -76.76021 | 35944 ft | 469 kts | 353° |
| 2026-04-23 18:26 | 13.13288 | -76.76422 | 35932 ft | 469 kts | 353° |
| 2026-04-23 18:26 | 13.19759 | -76.76821 | 35931 ft | 469 kts | 353° |
| 2026-04-23 18:27 | 13.26267 | -76.77223 | 35936 ft | 469 kts | 353° |
| 2026-04-23 18:27 | 13.32783 | -76.77626 | 35940 ft | 469 kts | 353° |
| 2026-04-23 18:28 | 13.39299 | -76.78028 | 35944 ft | 469 kts | 353° |
| 2026-04-23 18:28 | 13.45814 | -76.78431 | 35952 ft | 469 kts | 353° |
| 2026-04-23 18:29 | 13.52284 | -76.78831 | 35938 ft | 469 kts | 353° |
| 2026-04-23 18:29 | 13.58804 | -76.79234 | 35938 ft | 470 kts | 353° |
| 2026-04-23 18:30 | 13.65333 | -76.79638 | 35939 ft | 470 kts | 353° |
| 2026-04-23 18:30 | 13.71857 | -76.80042 | 35941 ft | 470 kts | 353° |
| 2026-04-23 18:31 | 13.78340 | -76.80444 | 35947 ft | 470 kts | 353° |
| 2026-04-23 18:31 | 13.84865 | -76.80849 | 35953 ft | 470 kts | 353° |
| 2026-04-23 18:32 | 13.91390 | -76.81253 | 35944 ft | 470 kts | 352° |
| 2026-04-23 18:32 | 13.97918 | -76.81659 | 35945 ft | 470 kts | 353° |
| 2026-04-23 18:33 | 14.04449 | -76.82064 | 35947 ft | 470 kts | 353° |
| 2026-04-23 18:33 | 14.10937 | -76.82468 | 35947 ft | 470 kts | 352° |
| 2026-04-23 18:34 | 14.17469 | -76.82874 | 35945 ft | 470 kts | 352° |
| 2026-04-23 18:34 | 14.24003 | -76.83280 | 35947 ft | 470 kts | 352° |
| 2026-04-23 18:35 | 14.30536 | -76.83687 | 35949 ft | 470 kts | 353° |
| 2026-04-23 18:35 | 14.37023 | -76.84091 | 35949 ft | 470 kts | 352° |
| 2026-04-23 18:36 | 14.43554 | -76.84498 | 35947 ft | 470 kts | 352° |
| 2026-04-23 18:36 | 14.50084 | -76.84906 | 35947 ft | 470 kts | 352° |
| 2026-04-23 18:37 | 14.56613 | -76.85313 | 35950 ft | 470 kts | 352° |
| 2026-04-23 18:37 | 14.63087 | -76.85716 | 35946 ft | 468 kts | 352° |
| 2026-04-23 18:38 | 14.69588 | -76.86123 | 35946 ft | 468 kts | 352° |
| 2026-04-23 18:38 | 14.76093 | -76.86530 | 35947 ft | 468 kts | 352° |
| 2026-04-23 18:39 | 14.82543 | -76.86934 | 35948 ft | 466 kts | 352° |
| 2026-04-23 18:39 | 14.89019 | -76.87339 | 35947 ft | 466 kts | 352° |
| 2026-04-23 18:40 | 14.95500 | -76.87745 | 35947 ft | 466 kts | 351° |
| 2026-04-23 18:40 | 15.01903 | -76.88529 | 35948 ft | 461 kts | 343° |
| 2026-04-23 18:41 | 15.08130 | -76.89863 | 35947 ft | 460 kts | 342° |
| 2026-04-23 18:41 | 15.14376 | -76.91312 | 35949 ft | 460 kts | 342° |
| 2026-04-23 18:42 | 15.20621 | -76.92775 | 35950 ft | 460 kts | 342° |
| 2026-04-23 18:42 | 15.26861 | -76.94227 | 35962 ft | 460 kts | 342° |
| 2026-04-23 18:43 | 15.33096 | -76.95669 | 35952 ft | 458 kts | 342° |
| 2026-04-23 18:43 | 15.39271 | -76.97097 | 36039 ft | 458 kts | 342° |
| 2026-04-23 18:43 | 15.42387 | -76.97819 | 36157 ft | 459 kts | 342° |
| 2026-04-23 18:44 | 15.45503 | -76.98541 | 35972 ft | 458 kts | 342° |
| 2026-04-23 18:44 | 15.51709 | -76.99977 | 35948 ft | 456 kts | 341° |
| 2026-04-23 18:45 | 15.57901 | -77.01413 | 35952 ft | 456 kts | 341° |
| 2026-04-23 18:45 | 15.64051 | -77.02840 | 35950 ft | 456 kts | 341° |
| 2026-04-23 18:46 | 15.70239 | -77.04277 | 35951 ft | 456 kts | 341° |
| 2026-04-23 18:46 | 15.76423 | -77.05713 | 35953 ft | 456 kts | 341° |
| 2026-04-23 18:47 | 15.82609 | -77.07151 | 35953 ft | 456 kts | 341° |
| 2026-04-23 18:47 | 15.88755 | -77.08580 | 35953 ft | 456 kts | 341° |
| 2026-04-23 18:48 | 15.94942 | -77.10020 | 35955 ft | 456 kts | 341° |
| 2026-04-23 18:48 | 16.01128 | -77.11460 | 35956 ft | 455 kts | 341° |
| 2026-04-23 18:49 | 16.07307 | -77.12900 | 35953 ft | 455 kts | 341° |
| 2026-04-23 18:49 | 16.13487 | -77.14341 | 35955 ft | 455 kts | 341° |
| 2026-04-23 18:50 | 16.18622 | -77.15539 | 35954 ft | 455 kts | 341° |
| 2026-04-23 18:50 | 16.25819 | -77.17219 | 35957 ft | 455 kts | 341° |
| 2026-04-23 18:51 | 16.32007 | -77.18664 | 35962 ft | 455 kts | 341° |
| 2026-04-23 18:51 | 16.38149 | -77.20100 | 35955 ft | 455 kts | 341° |
| 2026-04-23 18:52 | 16.44336 | -77.21547 | 35957 ft | 455 kts | 341° |
| 2026-04-23 18:52 | 16.50678 | -77.22153 | 35954 ft | 468 kts | 359° |
| 2026-04-23 18:53 | 16.57142 | -77.20766 | 35955 ft | 478 kts | 10° |
| 2026-04-23 18:53 | 16.63554 | -77.18783 | 35955 ft | 480 kts | 12° |
| 2026-04-23 18:54 | 16.69914 | -77.16714 | 35956 ft | 481 kts | 12° |
| 2026-04-23 18:54 | 16.76297 | -77.14669 | 35955 ft | 481 kts | 11° |
| 2026-04-23 18:55 | 16.82719 | -77.12642 | 35955 ft | 481 kts | 11° |
| 2026-04-23 18:55 | 16.89140 | -77.10626 | 35955 ft | 481 kts | 11° |
| 2026-04-23 18:56 | 16.94477 | -77.08949 | 35958 ft | 481 kts | 11° |
| 2026-04-23 18:56 | 17.01946 | -77.06599 | 35956 ft | 481 kts | 11° |
| 2026-04-23 18:57 | 17.08326 | -77.04589 | 35957 ft | 481 kts | 11° |
| 2026-04-23 18:57 | 17.14737 | -77.02568 | 35958 ft | 481 kts | 11° |
| 2026-04-23 18:58 | 17.21145 | -77.00546 | 35956 ft | 481 kts | 11° |
| 2026-04-23 18:58 | 17.27561 | -76.98521 | 35955 ft | 481 kts | 11° |
| 2026-04-23 18:59 | 17.33978 | -76.96493 | 35957 ft | 481 kts | 11° |
| 2026-04-23 18:59 | 17.40349 | -76.94479 | 35953 ft | 480 kts | 11° |
| 2026-04-23 19:00 | 17.46756 | -76.92451 | 35952 ft | 480 kts | 11° |
| 2026-04-23 19:00 | 17.53124 | -76.90436 | 35954 ft | 481 kts | 11° |
| 2026-04-23 19:01 | 17.59543 | -76.88401 | 35954 ft | 481 kts | 11° |
| 2026-04-23 19:01 | 17.65962 | -76.86366 | 35950 ft | 480 kts | 11° |
| 2026-04-23 19:02 | 17.71295 | -76.84673 | 35960 ft | 480 kts | 11° |
| 2026-04-23 19:02 | 17.78744 | -76.82308 | 35966 ft | 480 kts | 11° |
| 2026-04-23 19:03 | 17.85147 | -76.80274 | 35966 ft | 480 kts | 11° |
| 2026-04-23 19:03 | 17.91551 | -76.78587 | 35968 ft | 470 kts | 359° |
| 2026-04-23 19:03 | 17.94787 | -76.78472 | 35963 ft | 460 kts | 348° |
| 2026-04-23 19:04 | 17.97943 | -76.78878 | 35982 ft | 454 kts | 343° |
| 2026-04-23 19:04 | 18.04137 | -76.80119 | 35969 ft | 452 kts | 340° |
| 2026-04-23 19:05 | 18.10241 | -76.81527 | 35966 ft | 451 kts | 340° |
| 2026-04-23 19:05 | 18.16393 | -76.82945 | 35971 ft | 452 kts | 340° |
| 2026-04-23 19:06 | 18.22548 | -76.84333 | 35978 ft | 452 kts | 340° |
| 2026-04-23 19:06 | 18.28696 | -76.85706 | 35981 ft | 453 kts | 340° |
| 2026-04-23 19:07 | 18.34874 | -76.87080 | 35985 ft | 452 kts | 340° |
| 2026-04-23 19:07 | 18.40986 | -76.88442 | 35978 ft | 451 kts | 340° |
| 2026-04-23 19:08 | 18.47154 | -76.89819 | 35976 ft | 451 kts | 340° |
| 2026-04-23 19:08 | 18.53269 | -76.91184 | 35973 ft | 452 kts | 340° |
| 2026-04-23 19:09 | 18.59432 | -76.92560 | 35978 ft | 452 kts | 340° |
| 2026-04-23 19:09 | 18.65558 | -76.93928 | 35976 ft | 452 kts | 340° |
| 2026-04-23 19:10 | 18.71708 | -76.95303 | 35972 ft | 451 kts | 340° |
| 2026-04-23 19:10 | 18.77862 | -76.96680 | 35974 ft | 451 kts | 340° |
| 2026-04-23 19:11 | 18.83980 | -76.98053 | 35975 ft | 451 kts | 340° |
| 2026-04-23 19:11 | 18.90091 | -76.99425 | 35976 ft | 451 kts | 340° |
| 2026-04-23 19:12 | 18.95204 | -77.00575 | 35970 ft | 451 kts | 340° |
| 2026-04-23 19:12 | 19.02350 | -77.02182 | 35985 ft | 450 kts | 340° |
| 2026-04-23 19:13 | 19.07490 | -77.03339 | 35978 ft | 450 kts | 340° |
| 2026-04-23 19:13 | 19.13586 | -77.04712 | 35977 ft | 450 kts | 340° |
| 2026-04-23 19:14 | 19.19727 | -77.06096 | 35978 ft | 450 kts | 340° |
| 2026-04-23 19:14 | 19.25822 | -77.07471 | 35980 ft | 450 kts | 340° |
| 2026-04-23 19:15 | 19.31973 | -77.08860 | 35982 ft | 450 kts | 340° |
| 2026-04-23 19:15 | 19.38013 | -77.10389 | 35986 ft | 446 kts | 336° |
| 2026-04-23 19:16 | 19.43992 | -77.12145 | 35979 ft | 445 kts | 335° |
| 2026-04-23 19:16 | 19.49975 | -77.13931 | 35980 ft | 445 kts | 336° |
| 2026-04-23 19:17 | 19.58925 | -77.16558 | 35982 ft | 446 kts | 336° |
| 2026-04-23 19:17 | 19.64924 | -77.18304 | 35983 ft | 446 kts | 336° |
| 2026-04-23 19:18 | 19.70875 | -77.20036 | 35987 ft | 445 kts | 335° |
| 2026-04-23 19:18 | 19.76853 | -77.21777 | 35984 ft | 444 kts | 335° |
| 2026-04-23 19:19 | 19.85789 | -77.24386 | 35989 ft | 445 kts | 335° |
| 2026-04-23 19:20 | 19.94725 | -77.26998 | 35979 ft | 445 kts | 335° |
| 2026-04-23 19:20 | 20.00698 | -77.28744 | 35982 ft | 445 kts | 335° |
| 2026-04-23 19:21 | 20.09665 | -77.31369 | 35982 ft | 445 kts | 335° |
| 2026-04-23 19:22 | 20.15639 | -77.33120 | 35980 ft | 445 kts | 335° |
| 2026-04-23 19:22 | 20.24584 | -77.35744 | 35979 ft | 445 kts | 335° |
| 2026-04-23 19:23 | 20.30562 | -77.37499 | 35974 ft | 445 kts | 335° |
| 2026-04-23 19:24 | 20.39489 | -77.40122 | 35975 ft | 443 kts | 335° |
| 2026-04-23 19:24 | 20.48379 | -77.42738 | 36228 ft | 443 kts | 335° |
| 2026-04-23 19:25 | 20.54394 | -77.44308 | 36498 ft | 452 kts | 343° |
| 2026-04-23 19:25 | 20.60800 | -77.44570 | 36755 ft | 463 kts | 351° |
| 2026-04-23 19:26 | 20.67235 | -77.44406 | 36970 ft | 466 kts | 353° |
| 2026-04-23 19:26 | 20.70490 | -77.44285 | 36981 ft | 466 kts | 353° |
| 2026-04-23 19:27 | 20.86646 | -77.43732 | 36983 ft | 465 kts | 352° |
| 2026-04-23 19:28 | 20.99580 | -77.43342 | 36991 ft | 465 kts | 352° |
| 2026-04-23 19:29 | 21.09293 | -77.43048 | 36995 ft | 465 kts | 352° |
| 2026-04-23 19:30 | 21.18666 | -77.42762 | 36996 ft | 465 kts | 352° |
| 2026-04-23 19:31 | 21.28362 | -77.42466 | 36995 ft | 465 kts | 352° |
| 2026-04-23 19:31 | 21.34825 | -77.42269 | 37006 ft | 465 kts | 352° |
| 2026-04-23 19:32 | 21.41302 | -77.42076 | 37002 ft | 466 kts | 352° |
| 2026-04-23 19:32 | 21.47736 | -77.41901 | 37006 ft | 466 kts | 352° |
| 2026-04-23 19:33 | 21.54214 | -77.41728 | 37009 ft | 466 kts | 352° |
| 2026-04-23 19:33 | 21.63925 | -77.41468 | 37014 ft | 466 kts | 352° |
| 2026-04-23 19:34 | 21.70401 | -77.41292 | 37015 ft | 465 kts | 351° |
| 2026-04-23 19:35 | 21.80114 | -77.41029 | 37010 ft | 465 kts | 351° |
| 2026-04-23 19:35 | 21.86587 | -77.40853 | 37011 ft | 465 kts | 351° |
| 2026-04-23 19:36 | 21.93017 | -77.40679 | 37027 ft | 465 kts | 351° |
| 2026-04-23 19:36 | 21.99488 | -77.40503 | 37034 ft | 465 kts | 351° |
| 2026-04-23 19:37 | 22.05955 | -77.40327 | 37029 ft | 464 kts | 351° |
| 2026-04-23 19:37 | 22.12413 | -77.40151 | 37027 ft | 464 kts | 351° |
| 2026-04-23 19:38 | 22.18868 | -77.39976 | 37029 ft | 464 kts | 351° |
| 2026-04-23 19:38 | 22.25283 | -77.39801 | 37031 ft | 464 kts | 351° |
| 2026-04-23 19:39 | 22.31742 | -77.39623 | 37038 ft | 464 kts | 351° |
| 2026-04-23 19:39 | 22.38192 | -77.39435 | 37034 ft | 463 kts | 351° |
| 2026-04-23 19:40 | 22.44639 | -77.39248 | 37034 ft | 463 kts | 351° |
| 2026-04-23 19:40 | 22.51087 | -77.39061 | 37037 ft | 463 kts | 351° |
| 2026-04-23 19:41 | 22.57534 | -77.38874 | 37038 ft | 463 kts | 351° |
| 2026-04-23 19:41 | 22.63938 | -77.38689 | 37040 ft | 463 kts | 351° |
| 2026-04-23 19:42 | 22.70375 | -77.38501 | 37040 ft | 463 kts | 351° |
| 2026-04-23 19:42 | 22.76810 | -77.38314 | 37042 ft | 463 kts | 351° |
| 2026-04-23 19:43 | 22.83247 | -77.38128 | 37035 ft | 463 kts | 351° |
| 2026-04-23 19:43 | 22.89641 | -77.37942 | 37046 ft | 463 kts | 351° |
| 2026-04-23 19:44 | 22.96075 | -77.37754 | 37046 ft | 462 kts | 351° |
| 2026-04-23 19:44 | 23.02497 | -77.37565 | 37041 ft | 461 kts | 351° |
| 2026-04-23 19:45 | 23.08911 | -77.37379 | 37044 ft | 461 kts | 351° |
| 2026-04-23 19:45 | 23.15329 | -77.37189 | 37045 ft | 461 kts | 351° |
| 2026-04-23 19:46 | 23.21706 | -77.36998 | 37046 ft | 461 kts | 351° |
| 2026-04-23 19:46 | 23.28121 | -77.36805 | 37048 ft | 461 kts | 351° |
| 2026-04-23 19:47 | 23.34523 | -77.36612 | 37048 ft | 460 kts | 351° |
| 2026-04-23 19:47 | 23.40913 | -77.36421 | 37049 ft | 460 kts | 351° |
| 2026-04-23 19:48 | 23.47307 | -77.36230 | 37050 ft | 460 kts | 351° |
| 2026-04-23 19:48 | 23.53656 | -77.36039 | 37053 ft | 460 kts | 351° |
| 2026-04-23 19:49 | 23.60009 | -77.36058 | 37058 ft | 452 kts | 346° |
| 2026-04-23 19:49 | 23.66266 | -77.36444 | 37056 ft | 449 kts | 345° |
| 2026-04-23 19:50 | 23.72508 | -77.36883 | 37056 ft | 450 kts | 345° |
| 2026-04-23 19:50 | 23.78715 | -77.37282 | 37058 ft | 450 kts | 346° |
| 2026-04-23 19:51 | 23.84974 | -77.37657 | 37056 ft | 450 kts | 346° |
| 2026-04-23 19:51 | 23.91228 | -77.38021 | 37062 ft | 449 kts | 346° |
| 2026-04-23 19:52 | 23.97457 | -77.38385 | 37054 ft | 448 kts | 346° |
| 2026-04-23 19:52 | 24.03650 | -77.38751 | 37061 ft | 448 kts | 346° |
| 2026-04-23 19:53 | 24.09879 | -77.39121 | 37065 ft | 448 kts | 346° |
| 2026-04-23 19:53 | 24.16104 | -77.39489 | 37067 ft | 448 kts | 346° |
| 2026-04-23 19:54 | 24.22330 | -77.39858 | 37065 ft | 448 kts | 346° |
| 2026-04-23 19:54 | 24.28559 | -77.40227 | 37068 ft | 448 kts | 346° |
| 2026-04-23 19:55 | 24.34746 | -77.40594 | 37066 ft | 448 kts | 346° |
| 2026-04-23 19:55 | 24.40973 | -77.40964 | 37061 ft | 448 kts | 346° |
| 2026-04-23 19:56 | 24.47203 | -77.41335 | 37062 ft | 448 kts | 346° |
| 2026-04-23 19:56 | 24.53421 | -77.41703 | 37066 ft | 447 kts | 346° |
| 2026-04-23 19:57 | 24.59580 | -77.42069 | 37070 ft | 446 kts | 346° |
| 2026-04-23 19:57 | 24.65771 | -77.42439 | 37072 ft | 446 kts | 346° |
| 2026-04-23 19:58 | 24.71963 | -77.42810 | 37071 ft | 446 kts | 346° |
| 2026-04-23 19:58 | 24.78114 | -77.43178 | 37081 ft | 446 kts | 346° |
| 2026-04-23 19:59 | 24.84303 | -77.43548 | 37088 ft | 445 kts | 346° |
| 2026-04-23 19:59 | 24.90475 | -77.43916 | 37095 ft | 444 kts | 346° |
| 2026-04-23 20:00 | 24.96647 | -77.44287 | 37098 ft | 444 kts | 346° |
| 2026-04-23 20:00 | 25.02779 | -77.44656 | 37102 ft | 444 kts | 346° |
| 2026-04-23 20:01 | 25.08947 | -77.45033 | 37102 ft | 444 kts | 346° |
| 2026-04-23 20:01 | 25.15112 | -77.45412 | 37098 ft | 443 kts | 346° |
| 2026-04-23 20:02 | 25.21250 | -77.45788 | 37092 ft | 441 kts | 346° |
| 2026-04-23 20:02 | 25.27386 | -77.46167 | 37090 ft | 441 kts | 346° |
| 2026-04-23 20:03 | 25.33478 | -77.46544 | 37078 ft | 441 kts | 346° |
| 2026-04-23 20:03 | 25.39612 | -77.46923 | 37083 ft | 442 kts | 346° |
| 2026-04-23 20:04 | 25.45739 | -77.47301 | 37072 ft | 440 kts | 347° |
| 2026-04-23 20:04 | 25.51838 | -77.47677 | 37087 ft | 438 kts | 347° |
| 2026-04-23 20:05 | 25.57886 | -77.48052 | 37084 ft | 438 kts | 347° |
| 2026-04-23 20:05 | 25.63979 | -77.48431 | 37084 ft | 438 kts | 347° |
| 2026-04-23 20:06 | 25.70070 | -77.48807 | 37086 ft | 439 kts | 347° |
| 2026-04-23 20:06 | 25.76164 | -77.49167 | 37089 ft | 438 kts | 347° |
| 2026-04-23 20:07 | 25.82202 | -77.49516 | 37089 ft | 437 kts | 347° |
| 2026-04-23 20:07 | 25.88276 | -77.49870 | 37088 ft | 437 kts | 347° |
| 2026-04-23 20:08 | 25.94348 | -77.50227 | 37089 ft | 437 kts | 347° |
| 2026-04-23 20:08 | 26.00422 | -77.50584 | 37090 ft | 437 kts | 347° |
| 2026-04-23 20:09 | 26.06495 | -77.50942 | 37088 ft | 436 kts | 348° |
| 2026-04-23 20:09 | 26.12502 | -77.51294 | 37092 ft | 435 kts | 348° |
| 2026-04-23 20:10 | 26.17530 | -77.51591 | 37096 ft | 435 kts | 348° |
| 2026-04-23 20:10 | 26.24597 | -77.52009 | 37094 ft | 435 kts | 348° |
| 2026-04-23 20:11 | 26.30642 | -77.52367 | 37092 ft | 435 kts | 348° |
| 2026-04-23 20:11 | 26.36648 | -77.52722 | 37092 ft | 435 kts | 348° |
| 2026-04-23 20:12 | 26.42685 | -77.53078 | 37091 ft | 434 kts | 348° |
| 2026-04-23 20:12 | 26.48720 | -77.53436 | 37097 ft | 434 kts | 348° |
| 2026-04-23 20:13 | 26.54757 | -77.53795 | 37094 ft | 434 kts | 348° |
| 2026-04-23 20:13 | 26.60752 | -77.54151 | 37097 ft | 434 kts | 348° |
| 2026-04-23 20:14 | 26.66791 | -77.54511 | 37095 ft | 435 kts | 349° |
| 2026-04-23 20:14 | 26.72829 | -77.54870 | 37096 ft | 435 kts | 349° |
| 2026-04-23 20:15 | 26.78872 | -77.55230 | 37099 ft | 435 kts | 349° |
| 2026-04-23 20:15 | 26.84911 | -77.55590 | 37099 ft | 435 kts | 349° |
| 2026-04-23 20:16 | 26.90916 | -77.55948 | 37098 ft | 435 kts | 349° |
| 2026-04-23 20:16 | 26.96953 | -77.56309 | 37097 ft | 434 kts | 349° |
| 2026-04-23 20:17 | 27.02975 | -77.56668 | 37101 ft | 433 kts | 349° |
| 2026-04-23 20:17 | 27.08953 | -77.57027 | 37101 ft | 433 kts | 349° |
| 2026-04-23 20:18 | 27.14970 | -77.57388 | 37104 ft | 433 kts | 349° |
| 2026-04-23 20:18 | 27.20993 | -77.57750 | 37104 ft | 433 kts | 349° |
| 2026-04-23 20:19 | 27.27014 | -77.58112 | 37109 ft | 433 kts | 349° |
| 2026-04-23 20:19 | 27.32992 | -77.58472 | 37107 ft | 433 kts | 349° |
| 2026-04-23 20:20 | 27.39015 | -77.58834 | 37109 ft | 433 kts | 349° |
| 2026-04-23 20:20 | 27.45035 | -77.59197 | 37111 ft | 433 kts | 349° |
| 2026-04-23 20:21 | 27.51065 | -77.59557 | 37130 ft | 435 kts | 349° |
| 2026-04-23 20:21 | 27.57093 | -77.59921 | 37113 ft | 432 kts | 349° |
| 2026-04-23 20:22 | 27.63048 | -77.60283 | 37113 ft | 431 kts | 349° |
| 2026-04-23 20:22 | 27.69047 | -77.60648 | 37109 ft | 432 kts | 349° |
| 2026-04-23 20:23 | 27.75040 | -77.61013 | 37112 ft | 432 kts | 349° |
| 2026-04-23 20:23 | 27.81038 | -77.61377 | 37131 ft | 432 kts | 349° |
| 2026-04-23 20:24 | 27.86993 | -77.61739 | 37115 ft | 432 kts | 349° |
| 2026-04-23 20:24 | 27.92993 | -77.62103 | 37112 ft | 432 kts | 349° |
| 2026-04-23 20:25 | 27.98991 | -77.62469 | 37117 ft | 432 kts | 349° |
| 2026-04-23 20:25 | 28.04990 | -77.62834 | 37117 ft | 432 kts | 349° |
| 2026-04-23 20:26 | 28.10944 | -77.63198 | 37139 ft | 432 kts | 350° |
| 2026-04-23 20:26 | 28.16958 | -77.63534 | 37117 ft | 434 kts | 351° |
| 2026-04-23 20:27 | 28.22992 | -77.63832 | 37115 ft | 434 kts | 351° |
| 2026-04-23 20:27 | 28.29029 | -77.64127 | 37117 ft | 434 kts | 351° |
| 2026-04-23 20:28 | 28.35063 | -77.64426 | 37117 ft | 434 kts | 351° |
| 2026-04-23 20:28 | 28.41057 | -77.64728 | 37124 ft | 434 kts | 352° |
| 2026-04-23 20:29 | 28.47102 | -77.65034 | 37121 ft | 435 kts | 352° |
| 2026-04-23 20:29 | 28.53159 | -77.65339 | 37118 ft | 436 kts | 352° |
| 2026-04-23 20:30 | 28.59216 | -77.65645 | 37120 ft | 436 kts | 352° |
| 2026-04-23 20:30 | 28.68256 | -77.66102 | 37137 ft | 436 kts | 352° |
| 2026-04-23 20:31 | 28.74317 | -77.66409 | 37125 ft | 436 kts | 352° |
| 2026-04-23 20:31 | 28.80379 | -77.66716 | 37121 ft | 436 kts | 352° |
| 2026-04-23 20:32 | 28.86440 | -77.67024 | 37122 ft | 436 kts | 352° |
| 2026-04-23 20:32 | 28.92506 | -77.67332 | 37126 ft | 436 kts | 352° |
| 2026-04-23 20:33 | 28.98528 | -77.67639 | 37137 ft | 436 kts | 353° |
| 2026-04-23 20:33 | 29.04590 | -77.67948 | 37127 ft | 436 kts | 353° |
| 2026-04-23 20:34 | 29.10650 | -77.68257 | 37116 ft | 436 kts | 353° |
| 2026-04-23 20:34 | 29.16711 | -77.68567 | 37131 ft | 436 kts | 353° |
| 2026-04-23 20:35 | 29.22771 | -77.68876 | 37118 ft | 436 kts | 353° |
| 2026-04-23 20:35 | 29.28793 | -77.69185 | 37124 ft | 435 kts | 353° |
| 2026-04-23 20:36 | 29.34840 | -77.69494 | 37121 ft | 435 kts | 353° |
| 2026-04-23 20:36 | 29.40879 | -77.69804 | 37122 ft | 435 kts | 353° |
| 2026-04-23 20:37 | 29.46924 | -77.70115 | 37125 ft | 435 kts | 353° |
| 2026-04-23 20:37 | 29.52927 | -77.70425 | 37124 ft | 435 kts | 353° |
| 2026-04-23 20:38 | 29.58967 | -77.70736 | 37121 ft | 434 kts | 353° |
| 2026-04-23 20:38 | 29.64997 | -77.71047 | 37121 ft | 434 kts | 353° |
| 2026-04-23 20:39 | 29.71028 | -77.71359 | 37124 ft | 434 kts | 353° |
| 2026-04-23 20:39 | 29.77020 | -77.71669 | 37124 ft | 434 kts | 353° |
| 2026-04-23 20:40 | 29.83052 | -77.71982 | 37138 ft | 434 kts | 354° |
| 2026-04-23 20:40 | 29.89074 | -77.72295 | 37124 ft | 433 kts | 354° |
| 2026-04-23 20:41 | 29.95088 | -77.72607 | 37121 ft | 432 kts | 354° |
| 2026-04-23 20:41 | 30.01097 | -77.72920 | 37121 ft | 432 kts | 354° |
| 2026-04-23 20:42 | 30.07070 | -77.73232 | 37121 ft | 432 kts | 354° |
| 2026-04-23 20:42 | 30.13084 | -77.73546 | 37121 ft | 433 kts | 354° |
| 2026-04-23 20:43 | 30.19095 | -77.73860 | 37124 ft | 432 kts | 354° |
| 2026-04-23 20:43 | 30.25104 | -77.74174 | 37124 ft | 432 kts | 354° |
| 2026-04-23 20:44 | 30.31121 | -77.74489 | 37124 ft | 432 kts | 354° |
| 2026-04-23 20:44 | 30.37087 | -77.74802 | 37124 ft | 432 kts | 354° |
| 2026-04-23 20:45 | 30.43095 | -77.75148 | 37121 ft | 431 kts | 353° |
| 2026-04-23 20:45 | 30.49077 | -77.75594 | 37121 ft | 431 kts | 353° |
| 2026-04-23 20:46 | 30.55059 | -77.76064 | 37121 ft | 431 kts | 353° |
| 2026-04-23 20:46 | 30.61002 | -77.76524 | 37121 ft | 431 kts | 353° |
| 2026-04-23 20:47 | 30.66985 | -77.76981 | 37131 ft | 431 kts | 353° |
| 2026-04-23 20:47 | 30.72960 | -77.77434 | 37121 ft | 430 kts | 353° |
| 2026-04-23 20:48 | 30.78935 | -77.77888 | 37119 ft | 430 kts | 353° |
| 2026-04-23 20:48 | 30.84867 | -77.78339 | 37119 ft | 430 kts | 353° |
| 2026-04-23 20:49 | 30.90840 | -77.78795 | 37119 ft | 430 kts | 353° |
| 2026-04-23 20:49 | 30.96812 | -77.79251 | 37122 ft | 429 kts | 354° |
| 2026-04-23 20:50 | 31.02758 | -77.79705 | 37119 ft | 428 kts | 354° |
| 2026-04-23 20:50 | 31.08696 | -77.80159 | 37116 ft | 427 kts | 354° |
| 2026-04-23 20:51 | 31.14588 | -77.80611 | 37116 ft | 427 kts | 354° |
| 2026-04-23 20:51 | 31.20526 | -77.81067 | 37113 ft | 428 kts | 354° |
| 2026-04-23 20:52 | 31.26456 | -77.81522 | 37112 ft | 426 kts | 354° |
| 2026-04-23 20:52 | 31.32367 | -77.81977 | 37113 ft | 425 kts | 354° |
| 2026-04-23 20:53 | 31.38274 | -77.82432 | 37111 ft | 425 kts | 354° |
| 2026-04-23 20:53 | 31.44142 | -77.82884 | 37110 ft | 425 kts | 354° |
| 2026-04-23 20:54 | 31.50051 | -77.83341 | 37112 ft | 425 kts | 354° |
| 2026-04-23 20:54 | 31.55948 | -77.83796 | 37105 ft | 424 kts | 354° |
| 2026-04-23 20:55 | 31.61832 | -77.84252 | 37102 ft | 424 kts | 354° |
| 2026-04-23 20:55 | 31.67675 | -77.84705 | 37103 ft | 424 kts | 354° |
| 2026-04-23 20:56 | 31.73559 | -77.85161 | 37103 ft | 424 kts | 354° |
| 2026-04-23 20:56 | 31.79441 | -77.85619 | 37103 ft | 423 kts | 354° |
| 2026-04-23 20:57 | 31.85318 | -77.86076 | 37099 ft | 423 kts | 354° |
| 2026-04-23 20:57 | 31.91191 | -77.86511 | 37100 ft | 423 kts | 355° |
| 2026-04-23 20:58 | 31.97030 | -77.86857 | 37102 ft | 423 kts | 355° |
| 2026-04-23 20:58 | 32.02913 | -77.87185 | 37102 ft | 423 kts | 355° |
| 2026-04-23 20:59 | 32.08785 | -77.87519 | 37099 ft | 422 kts | 355° |
| 2026-04-23 20:59 | 32.14651 | -77.87859 | 37097 ft | 422 kts | 355° |
| 2026-04-23 21:00 | 32.20473 | -77.88200 | 37100 ft | 422 kts | 355° |
| 2026-04-23 21:00 | 32.26330 | -77.88543 | 37098 ft | 422 kts | 355° |
| 2026-04-23 21:01 | 32.32192 | -77.88886 | 37099 ft | 421 kts | 355° |
| 2026-04-23 21:01 | 32.38044 | -77.89230 | 37088 ft | 421 kts | 355° |
| 2026-04-23 21:02 | 32.43883 | -77.89573 | 37089 ft | 420 kts | 355° |
| 2026-04-23 21:02 | 32.49690 | -77.89914 | 37088 ft | 420 kts | 355° |
| 2026-04-23 21:03 | 32.55532 | -77.90258 | 37088 ft | 420 kts | 355° |
| 2026-04-23 21:03 | 32.61374 | -77.90602 | 37086 ft | 420 kts | 355° |
| 2026-04-23 21:04 | 32.67215 | -77.90947 | 37087 ft | 420 kts | 355° |
| 2026-04-23 21:04 | 32.73011 | -77.91289 | 37080 ft | 420 kts | 355° |
| 2026-04-23 21:05 | 32.78842 | -77.91634 | 37078 ft | 420 kts | 355° |
| 2026-04-23 21:05 | 32.84678 | -77.91980 | 37078 ft | 420 kts | 355° |
| 2026-04-23 21:06 | 32.90513 | -77.92326 | 37072 ft | 420 kts | 355° |
| 2026-04-23 21:06 | 32.96350 | -77.92673 | 37074 ft | 420 kts | 355° |
| 2026-04-23 21:07 | 33.02147 | -77.93018 | 37072 ft | 420 kts | 355° |
| 2026-04-23 21:07 | 33.07982 | -77.93366 | 37072 ft | 420 kts | 355° |
| 2026-04-23 21:08 | 33.13817 | -77.93713 | 37063 ft | 419 kts | 355° |
| 2026-04-23 21:08 | 33.19638 | -77.94060 | 37070 ft | 419 kts | 355° |
| 2026-04-23 21:09 | 33.25454 | -77.94407 | 37065 ft | 419 kts | 355° |
| 2026-04-23 21:09 | 33.31231 | -77.94754 | 37060 ft | 419 kts | 355° |
| 2026-04-23 21:10 | 33.37052 | -77.95103 | 37075 ft | 419 kts | 355° |
| 2026-04-23 21:10 | 33.42868 | -77.95452 | 37055 ft | 418 kts | 355° |
| 2026-04-23 21:11 | 33.48681 | -77.95802 | 37047 ft | 418 kts | 355° |
| 2026-04-23 21:11 | 33.54473 | -77.96153 | 37056 ft | 420 kts | 355° |
| 2026-04-23 21:12 | 33.60303 | -77.96503 | 37053 ft | 420 kts | 355° |
| 2026-04-23 21:12 | 33.66135 | -77.96855 | 37054 ft | 419 kts | 355° |
| 2026-04-23 21:13 | 33.71957 | -77.97206 | 37051 ft | 419 kts | 355° |
| 2026-04-23 21:13 | 33.77745 | -77.97556 | 37034 ft | 419 kts | 355° |
| 2026-04-23 21:14 | 33.83567 | -77.97910 | 37026 ft | 419 kts | 355° |
| 2026-04-23 21:14 | 33.89398 | -77.97804 | 37024 ft | 420 kts | 4° |
| 2026-04-23 21:15 | 33.95218 | -77.97016 | 37029 ft | 421 kts | 5° |
| 2026-04-23 21:15 | 34.00987 | -77.96106 | 37027 ft | 421 kts | 6° |
| 2026-04-23 21:16 | 34.06793 | -77.95175 | 37032 ft | 421 kts | 6° |
| 2026-04-23 21:16 | 34.12589 | -77.94255 | 37006 ft | 420 kts | 5° |
| 2026-04-23 21:17 | 34.18375 | -77.93345 | 36999 ft | 419 kts | 5° |
| 2026-04-23 21:17 | 34.24126 | -77.92441 | 36999 ft | 419 kts | 5° |
| 2026-04-23 21:18 | 34.29910 | -77.91531 | 36999 ft | 419 kts | 5° |
| 2026-04-23 21:18 | 34.35699 | -77.90618 | 36999 ft | 419 kts | 5° |
| 2026-04-23 21:19 | 34.41485 | -77.89705 | 37005 ft | 419 kts | 5° |
| 2026-04-23 21:19 | 34.47266 | -77.88791 | 37005 ft | 419 kts | 5° |
| 2026-04-23 21:20 | 34.53008 | -77.87881 | 37000 ft | 419 kts | 6° |
| 2026-04-23 21:20 | 34.58790 | -77.86965 | 36996 ft | 419 kts | 6° |
| 2026-04-23 21:21 | 34.64573 | -77.86046 | 37000 ft | 419 kts | 6° |
| 2026-04-23 21:21 | 34.70350 | -77.85128 | 36993 ft | 419 kts | 6° |
| 2026-04-23 21:22 | 34.76095 | -77.84213 | 36993 ft | 419 kts | 6° |
| 2026-04-23 21:22 | 34.81874 | -77.83292 | 36996 ft | 419 kts | 6° |
| 2026-04-23 21:23 | 34.87650 | -77.82335 | 36995 ft | 419 kts | 7° |
| 2026-04-23 21:23 | 34.93401 | -77.81109 | 37002 ft | 420 kts | 8° |
| 2026-04-23 21:24 | 34.99136 | -77.79784 | 37002 ft | 419 kts | 8° |
| 2026-04-23 21:24 | 35.04832 | -77.78480 | 37005 ft | 419 kts | 8° |
| 2026-04-23 21:25 | 35.10570 | -77.77186 | 37005 ft | 419 kts | 8° |
| 2026-04-23 21:25 | 35.16309 | -77.75899 | 36990 ft | 419 kts | 8° |
| 2026-04-23 21:26 | 35.22005 | -77.74621 | 36990 ft | 419 kts | 8° |
| 2026-04-23 21:26 | 35.27739 | -77.73332 | 36992 ft | 419 kts | 8° |
| 2026-04-23 21:27 | 35.33471 | -77.72042 | 36992 ft | 419 kts | 8° |
| 2026-04-23 21:27 | 35.39204 | -77.70748 | 36993 ft | 419 kts | 8° |
| 2026-04-23 21:28 | 35.44900 | -77.69462 | 36994 ft | 419 kts | 8° |
| 2026-04-23 21:28 | 35.50633 | -77.68164 | 36995 ft | 419 kts | 8° |
| 2026-04-23 21:29 | 35.56365 | -77.66866 | 36991 ft | 419 kts | 8° |
| 2026-04-23 21:29 | 35.62102 | -77.65611 | 36987 ft | 419 kts | 7° |
| 2026-04-23 21:30 | 35.67856 | -77.64564 | 36975 ft | 417 kts | 6° |
| 2026-04-23 21:30 | 35.73565 | -77.63583 | 36974 ft | 417 kts | 6° |
| 2026-04-23 21:31 | 35.79310 | -77.62581 | 36978 ft | 417 kts | 6° |
| 2026-04-23 21:31 | 35.85057 | -77.61562 | 36979 ft | 417 kts | 6° |
| 2026-04-23 21:32 | 35.90796 | -77.60535 | 36957 ft | 417 kts | 6° |
| 2026-04-23 21:32 | 35.96491 | -77.59515 | 36961 ft | 416 kts | 6° |
| 2026-04-23 21:33 | 36.02228 | -77.58485 | 36961 ft | 416 kts | 6° |
| 2026-04-23 21:33 | 36.07938 | -77.57460 | 36966 ft | 414 kts | 6° |
| 2026-04-23 21:34 | 36.13638 | -77.56438 | 36966 ft | 413 kts | 6° |
| 2026-04-23 21:34 | 36.19325 | -77.55415 | 36963 ft | 413 kts | 6° |
| 2026-04-23 21:35 | 36.24967 | -77.54399 | 36968 ft | 413 kts | 6° |
| 2026-04-23 21:35 | 36.30650 | -77.53373 | 36963 ft | 413 kts | 6° |
| 2026-04-23 21:36 | 36.39165 | -77.51833 | 36962 ft | 412 kts | 5° |
| 2026-04-23 21:37 | 36.44838 | -77.50806 | 36962 ft | 412 kts | 5° |
| 2026-04-23 21:37 | 36.50473 | -77.49784 | 36964 ft | 412 kts | 5° |
| 2026-04-23 21:38 | 36.56150 | -77.48755 | 36964 ft | 412 kts | 5° |
| 2026-04-23 21:38 | 36.61827 | -77.47735 | 36971 ft | 412 kts | 5° |
| 2026-04-23 21:39 | 36.67502 | -77.46720 | 36971 ft | 412 kts | 5° |
| 2026-04-23 21:39 | 36.73135 | -77.45710 | 36971 ft | 412 kts | 5° |
| 2026-04-23 21:40 | 36.78809 | -77.44690 | 36971 ft | 412 kts | 5° |
| 2026-04-23 21:40 | 36.84481 | -77.43667 | 36970 ft | 412 kts | 5° |
| 2026-04-23 21:41 | 36.90157 | -77.42643 | 36964 ft | 412 kts | 5° |
| 2026-04-23 21:41 | 36.95838 | -77.41617 | 36957 ft | 412 kts | 5° |
| 2026-04-23 21:42 | 37.01516 | -77.40590 | 36964 ft | 412 kts | 5° |
| 2026-04-23 21:42 | 37.07162 | -77.39994 | 36967 ft | 407 kts | 354° |
| 2026-04-23 21:43 | 37.12651 | -77.41357 | 36964 ft | 401 kts | 336° |
| 2026-04-23 21:43 | 37.17563 | -77.44617 | 36957 ft | 400 kts | 328° |
| 2026-04-23 21:44 | 37.22314 | -77.48270 | 36966 ft | 401 kts | 327° |
| 2026-04-23 21:44 | 37.27033 | -77.51907 | 36959 ft | 401 kts | 327° |
| 2026-04-23 21:45 | 37.31783 | -77.55566 | 36970 ft | 400 kts | 327° |
| 2026-04-23 21:45 | 37.36525 | -77.59223 | 36956 ft | 399 kts | 327° |
| 2026-04-23 21:46 | 37.41273 | -77.62888 | 36961 ft | 402 kts | 327° |
| 2026-04-23 21:46 | 37.45310 | -77.65786 | 36966 ft | 403 kts | 334° |
| 2026-04-23 21:46 | 37.48839 | -77.67274 | 36965 ft | 406 kts | 346° |
| 2026-04-23 21:47 | 37.51650 | -77.67715 | 36968 ft | 409 kts | 355° |
| 2026-04-23 21:47 | 37.57315 | -77.66707 | 36964 ft | 419 kts | 14° |
| 2026-04-23 21:48 | 37.62553 | -77.63325 | 36967 ft | 427 kts | 27° |
| 2026-04-23 21:48 | 37.67529 | -77.59280 | 36963 ft | 429 kts | 28° |
| 2026-04-23 21:49 | 37.72534 | -77.55199 | 36961 ft | 427 kts | 27° |
| 2026-04-23 21:49 | 37.77526 | -77.51139 | 36963 ft | 426 kts | 27° |
| 2026-04-23 21:50 | 37.81674 | -77.47765 | 36961 ft | 426 kts | 27° |
| 2026-04-23 21:50 | 37.86663 | -77.43703 | 36960 ft | 427 kts | 27° |
| 2026-04-23 21:51 | 37.92461 | -77.38974 | 36957 ft | 427 kts | 27° |
| 2026-04-23 21:51 | 37.96608 | -77.35587 | 36954 ft | 427 kts | 27° |
| 2026-04-23 21:52 | 38.01598 | -77.31508 | 36938 ft | 427 kts | 27° |
| 2026-04-23 21:52 | 38.06589 | -77.27424 | 36933 ft | 427 kts | 27° |
| 2026-04-23 21:53 | 38.11581 | -77.23334 | 36931 ft | 427 kts | 27° |
| 2026-04-23 21:53 | 38.16567 | -77.19241 | 36928 ft | 426 kts | 27° |
| 2026-04-23 21:54 | 38.21498 | -77.15185 | 36936 ft | 425 kts | 27° |
| 2026-04-23 21:54 | 38.26458 | -77.11101 | 36930 ft | 424 kts | 27° |
| 2026-04-23 21:55 | 38.32094 | -77.06091 | 36934 ft | 427 kts | 31° |
| 2026-04-23 21:55 | 38.36064 | -77.02262 | 36935 ft | 427 kts | 31° |
| 2026-04-23 21:56 | 38.40774 | -76.97714 | 36941 ft | 427 kts | 31° |
| 2026-04-23 21:56 | 38.45511 | -76.93141 | 36939 ft | 427 kts | 31° |
| 2026-04-23 21:57 | 38.50245 | -76.88568 | 36934 ft | 427 kts | 31° |
| 2026-04-23 21:57 | 38.54976 | -76.83991 | 36931 ft | 426 kts | 31° |
| 2026-04-23 21:58 | 38.59691 | -76.79421 | 36930 ft | 425 kts | 31° |
| 2026-04-23 21:58 | 38.64360 | -76.74889 | 36936 ft | 424 kts | 30° |
| 2026-04-23 21:59 | 38.69064 | -76.70316 | 36928 ft | 424 kts | 30° |
| 2026-04-23 21:59 | 38.73756 | -76.65746 | 36927 ft | 424 kts | 30° |
| 2026-04-23 22:00 | 38.80797 | -76.58874 | 36943 ft | 424 kts | 30° |
| 2026-04-23 22:00 | 38.85451 | -76.54321 | 36934 ft | 423 kts | 30° |
| 2026-04-23 22:01 | 38.90135 | -76.49732 | 36962 ft | 424 kts | 30° |
| 2026-04-23 22:01 | 38.94840 | -76.45118 | 36460 ft | 430 kts | 30° |
| 2026-04-23 22:02 | 38.97234 | -76.42770 | 35603 ft | 436 kts | 31° |
| 2026-04-23 22:02 | 38.99664 | -76.40383 | 34733 ft | 444 kts | 31° |
| 2026-04-23 22:02 | 39.02099 | -76.37983 | 33966 ft | 450 kts | 32° |
| 2026-04-23 22:02 | 39.04503 | -76.35358 | 33178 ft | 456 kts | 36° |
| 2026-04-23 22:03 | 39.06851 | -76.32626 | 32694 ft | 452 kts | 36° |
| 2026-04-23 22:03 | 39.09163 | -76.29914 | 32183 ft | 449 kts | 36° |
| 2026-04-23 22:03 | 39.11459 | -76.27221 | 31730 ft | 444 kts | 37° |
| 2026-04-23 22:03 | 39.13735 | -76.24556 | 31238 ft | 440 kts | 37° |
| 2026-04-23 22:04 | 39.15991 | -76.21917 | 30769 ft | 436 kts | 37° |
| 2026-04-23 22:04 | 39.18228 | -76.19299 | 30314 ft | 433 kts | 37° |
| 2026-04-23 22:04 | 39.20447 | -76.16701 | 29802 ft | 428 kts | 37° |
| 2026-04-23 22:04 | 39.22637 | -76.14135 | 28981 ft | 424 kts | 36° |
| 2026-04-23 22:05 | 39.24772 | -76.11631 | 28414 ft | 415 kts | 36° |
| 2026-04-23 22:05 | 39.26890 | -76.09143 | 27663 ft | 410 kts | 36° |
| 2026-04-23 22:05 | 39.28982 | -76.06686 | 27125 ft | 401 kts | 36° |
| 2026-04-23 22:05 | 39.31001 | -76.04306 | 26933 ft | 386 kts | 36° |
| 2026-04-23 22:06 | 39.32962 | -76.01998 | 26411 ft | 379 kts | 36° |
| 2026-04-23 22:06 | 39.34907 | -75.99712 | 25747 ft | 378 kts | 36° |
| 2026-04-23 22:06 | 39.36847 | -75.97433 | 25123 ft | 376 kts | 36° |
| 2026-04-23 22:06 | 39.38776 | -75.95162 | 24527 ft | 374 kts | 36° |
| 2026-04-23 22:07 | 39.40671 | -75.92928 | 24103 ft | 374 kts | 36° |
| 2026-04-23 22:07 | 39.42582 | -75.90672 | 23727 ft | 371 kts | 36° |
| 2026-04-23 22:07 | 39.44484 | -75.88425 | 23303 ft | 369 kts | 36° |
| 2026-04-23 22:07 | 39.46371 | -75.86194 | 22839 ft | 367 kts | 36° |
| 2026-04-23 22:08 | 39.48248 | -75.83972 | 22388 ft | 364 kts | 36° |
| 2026-04-23 22:08 | 39.50111 | -75.81765 | 21945 ft | 362 kts | 36° |
| 2026-04-23 22:08 | 39.51961 | -75.79572 | 21511 ft | 360 kts | 36° |
| 2026-04-23 22:08 | 39.53774 | -75.77422 | 21103 ft | 357 kts | 36° |
| 2026-04-23 22:09 | 39.55603 | -75.75251 | 20684 ft | 355 kts | 35° |
| 2026-04-23 22:09 | 39.57418 | -75.73095 | 20246 ft | 353 kts | 35° |
| 2026-04-23 22:09 | 39.59220 | -75.70953 | 19991 ft | 350 kts | 35° |
| 2026-04-23 22:09 | 39.61015 | -75.68818 | 19941 ft | 350 kts | 35° |
| 2026-04-23 22:10 | 39.62810 | -75.66684 | 19933 ft | 351 kts | 35° |
| 2026-04-23 22:10 | 39.64608 | -75.64543 | 19933 ft | 351 kts | 35° |
| 2026-04-23 22:10 | 39.66382 | -75.62429 | 19935 ft | 351 kts | 35° |
| 2026-04-23 22:10 | 39.68178 | -75.60282 | 19903 ft | 350 kts | 35° |
| 2026-04-23 22:11 | 39.69963 | -75.58138 | 19500 ft | 350 kts | 35° |
| 2026-04-23 22:11 | 39.71744 | -75.55994 | 19097 ft | 348 kts | 35° |
| 2026-04-23 22:11 | 39.73511 | -75.53864 | 18688 ft | 346 kts | 35° |
| 2026-04-23 22:11 | 39.75269 | -75.51746 | 18280 ft | 344 kts | 35° |
| 2026-04-23 22:12 | 39.77016 | -75.49639 | 17832 ft | 342 kts | 35° |
| 2026-04-23 22:12 | 39.78752 | -75.47543 | 17370 ft | 340 kts | 35° |
| 2026-04-23 22:12 | 39.80483 | -75.45454 | 16930 ft | 338 kts | 36° |
| 2026-04-23 22:12 | 39.82171 | -75.43413 | 16506 ft | 335 kts | 35° |
| 2026-04-23 22:13 | 39.83872 | -75.41355 | 16103 ft | 333 kts | 35° |
| 2026-04-23 22:13 | 39.85561 | -75.39312 | 15691 ft | 330 kts | 35° |
| 2026-04-23 22:13 | 39.87237 | -75.37283 | 15284 ft | 328 kts | 35° |
| 2026-04-23 22:13 | 39.88904 | -75.35263 | 14876 ft | 326 kts | 35° |
| 2026-04-23 22:14 | 39.90557 | -75.33259 | 14468 ft | 324 kts | 35° |
| 2026-04-23 22:14 | 39.92201 | -75.31265 | 14078 ft | 322 kts | 35° |
| 2026-04-23 22:14 | 39.93832 | -75.29284 | 13675 ft | 320 kts | 35° |
| 2026-04-23 22:14 | 39.95433 | -75.27340 | 13246 ft | 318 kts | 36° |
| 2026-04-23 22:15 | 39.97039 | -75.25387 | 13023 ft | 314 kts | 36° |
| 2026-04-23 22:15 | 39.98631 | -75.23449 | 12799 ft | 313 kts | 36° |
| 2026-04-23 22:15 | 40.00221 | -75.21515 | 12348 ft | 312 kts | 36° |
| 2026-04-23 22:15 | 40.01803 | -75.19588 | 11933 ft | 310 kts | 36° |
| 2026-04-23 22:16 | 40.03367 | -75.17679 | 11543 ft | 307 kts | 36° |
| 2026-04-23 22:16 | 40.04922 | -75.15782 | 11172 ft | 304 kts | 37° |
| 2026-04-23 22:16 | 40.06459 | -75.13906 | 11015 ft | 302 kts | 37° |
| 2026-04-23 22:16 | 40.07996 | -75.12031 | 11007 ft | 303 kts | 37° |
| 2026-04-23 22:17 | 40.09518 | -75.10174 | 11002 ft | 304 kts | 37° |
| 2026-04-23 22:17 | 40.11060 | -75.08288 | 11008 ft | 304 kts | 37° |
| 2026-04-23 22:17 | 40.12600 | -75.06404 | 11016 ft | 304 kts | 36° |
| 2026-04-23 22:17 | 40.14140 | -75.04517 | 11004 ft | 302 kts | 36° |
| 2026-04-23 22:18 | 40.15659 | -75.02652 | 10840 ft | 298 kts | 36° |
| 2026-04-23 22:18 | 40.17170 | -75.00800 | 10411 ft | 297 kts | 36° |
| 2026-04-23 22:18 | 40.18670 | -74.98958 | 10058 ft | 294 kts | 36° |
| 2026-04-23 22:18 | 40.20137 | -74.97152 | 9705 ft | 286 kts | 36° |
| 2026-04-23 22:19 | 40.21552 | -74.95412 | 9322 ft | 281 kts | 36° |
| 2026-04-23 22:19 | 40.22983 | -74.93657 | 9068 ft | 283 kts | 36° |
| 2026-04-23 22:19 | 40.24420 | -74.91894 | 8802 ft | 283 kts | 37° |
| 2026-04-23 22:19 | 40.25812 | -74.90078 | 8539 ft | 283 kts | 40° |
| 2026-04-23 22:20 | 40.27163 | -74.88212 | 8287 ft | 282 kts | 41° |
| 2026-04-23 22:20 | 40.28502 | -74.86338 | 8042 ft | 281 kts | 41° |
| 2026-04-23 22:20 | 40.29833 | -74.84470 | 7987 ft | 280 kts | 41° |
| 2026-04-23 22:20 | 40.31163 | -74.82602 | 7982 ft | 280 kts | 41° |
| 2026-04-23 22:21 | 40.32494 | -74.80733 | 7985 ft | 281 kts | 41° |
| 2026-04-23 22:21 | 40.33810 | -74.78884 | 7999 ft | 281 kts | 41° |
| 2026-04-23 22:21 | 40.35141 | -74.77012 | 7988 ft | 280 kts | 41° |
| 2026-04-23 22:21 | 40.36470 | -74.75141 | 7987 ft | 280 kts | 41° |
| 2026-04-23 22:22 | 40.37797 | -74.73272 | 7987 ft | 280 kts | 41° |
| 2026-04-23 22:22 | 40.39126 | -74.71402 | 7993 ft | 280 kts | 41° |
| 2026-04-23 22:22 | 40.40416 | -74.69479 | 7989 ft | 284 kts | 48° |
| 2026-04-23 22:22 | 40.41442 | -74.67241 | 7700 ft | 288 kts | 57° |
| 2026-04-23 22:23 | 40.42322 | -74.64930 | 7339 ft | 286 kts | 59° |
| 2026-04-23 22:23 | 40.43058 | -74.62509 | 6951 ft | 288 kts | 69° |
| 2026-04-23 22:23 | 40.43565 | -74.59966 | 6594 ft | 287 kts | 72° |
| 2026-04-23 22:23 | 40.44114 | -74.57472 | 6236 ft | 283 kts | 69° |
| 2026-04-23 22:24 | 40.44704 | -74.55013 | 5873 ft | 281 kts | 69° |
| 2026-04-23 22:24 | 40.45298 | -74.52575 | 5462 ft | 280 kts | 69° |
| 2026-04-23 22:24 | 40.45898 | -74.50154 | 5092 ft | 278 kts | 69° |
| 2026-04-23 22:24 | 40.46502 | -74.47743 | 4702 ft | 277 kts | 69° |
| 2026-04-23 22:25 | 40.47105 | -74.45349 | 4329 ft | 275 kts | 68° |
| 2026-04-23 22:25 | 40.47686 | -74.43042 | 4168 ft | 264 kts | 69° |
| 2026-04-23 22:25 | 40.48250 | -74.40801 | 3986 ft | 252 kts | 68° |
| 2026-04-23 22:25 | 40.48789 | -74.38666 | 3716 ft | 243 kts | 68° |
| 2026-04-23 22:26 | 40.49316 | -74.36579 | 3363 ft | 239 kts | 68° |
| 2026-04-23 22:26 | 40.49834 | -74.34529 | 3156 ft | 230 kts | 68° |
| 2026-04-23 22:26 | 40.50321 | -74.32594 | 2978 ft | 219 kts | 68° |
| 2026-04-23 22:26 | 40.50790 | -74.30731 | 2804 ft | 212 kts | 68° |
| 2026-04-23 22:27 | 40.51255 | -74.28893 | 2760 ft | 211 kts | 67° |
| 2026-04-23 22:27 | 40.51792 | -74.27091 | 2371 ft | 212 kts | 57° |
| 2026-04-23 22:27 | 40.52661 | -74.25612 | 2037 ft | 203 kts | 37° |
| 2026-04-23 22:27 | 40.53824 | -74.24679 | 1760 ft | 189 kts | 18° |
| 2026-04-23 22:28 | 40.55021 | -74.24149 | 1673 ft | 173 kts | 12° |
| 2026-04-23 22:28 | 40.56108 | -74.23734 | 1664 ft | 152 kts | 12° |
| 2026-04-23 22:28 | 40.57104 | -74.23365 | 1682 ft | 148 kts | 11° |
| 2026-04-23 22:28 | 40.58103 | -74.22998 | 1691 ft | 149 kts | 12° |
| 2026-04-23 22:29 | 40.59107 | -74.22626 | 1688 ft | 151 kts | 11° |
| 2026-04-23 22:29 | 40.60098 | -74.22200 | 1681 ft | 150 kts | 19° |
| 2026-04-23 22:29 | 40.61037 | -74.21633 | 1527 ft | 151 kts | 20° |
| 2026-04-23 22:29 | 40.61955 | -74.21082 | 1322 ft | 139 kts | 20° |
| 2026-04-23 22:30 | 40.62810 | -74.20563 | 1127 ft | 134 kts | 20° |
| 2026-04-23 22:30 | 40.63654 | -74.20028 | 966 ft | 135 kts | 21° |
| 2026-04-23 22:30 | 40.64497 | -74.19494 | 797 ft | 135 kts | 21° |
| 2026-04-23 22:30 | 40.65341 | -74.18961 | 624 ft | 132 kts | 21° |
| 2026-04-23 22:31 | 40.66164 | -74.18439 | 456 ft | 131 kts | 18° |
| 2026-04-23 22:31 | 40.66998 | -74.17906 | 281 ft | 136 kts | 20° |
| 2026-04-23 22:31 | 40.67844 | -74.17355 | 103 ft | 132 kts | 16° |
| 2026-04-23 22:31 | 40.68633 | -74.16863 | 27 ft | 120 kts | 22° |
| 2026-04-23 22:32 | 40.69241 | -74.16487 | 27 ft | 73 kts | 23° |
| 2026-04-23 22:32 | 40.69474 | -74.16457 | 27 ft | 0 kts | 355° |
| 2026-04-23 22:32 | 40.69493 | -74.16460 | 26 ft | 5 kts | 355° |
| 2026-04-23 22:33 | 40.69523 | -74.16463 | 26 ft | 0 kts | 355° |
| 2026-04-23 22:33 | 40.69524 | -74.16463 | 26 ft | 1 kts | 355° |
| 2026-04-23 22:33 | 40.69576 | -74.16469 | 23 ft | 7 kts | 341° |
| 2026-04-23 22:34 | 40.69602 | -74.16500 | 23 ft | 4 kts | 310° |
| 2026-04-23 22:34 | 40.69630 | -74.16575 | 26 ft | 18 kts | 294° |
| 2026-04-23 22:34 | 40.69685 | -74.16724 | 23 ft | 18 kts | 283° |
| 2026-04-23 22:34 | 40.69659 | -74.16862 | 22 ft | 15 kts | 250° |
| 2026-04-23 22:35 | 40.69622 | -74.16996 | 22 ft | 16 kts | 251° |
| 2026-04-23 22:35 | 40.69603 | -74.17111 | 26 ft | 6 kts | 298° |
| 2026-04-23 22:35 | 40.69625 | -74.17146 | 26 ft | 12 kts | 297° |
| 2026-04-23 22:35 | 40.69624 | -74.17220 | 24 ft | 0 kts | 248° |
| 2026-04-23 22:36 | 40.69621 | -74.17234 | 24 ft | 5 kts | 259° |
| 2026-04-23 22:36 | 40.69621 | -74.17235 | 24 ft | 0 kts | 259° |